createdAt,value
2017-09-25T00:00:08.989Z,0
2017-09-25T00:01:06.837Z,0
2017-09-25T00:02:07.439Z,0
2017-09-25T00:03:07.459Z,0
2017-09-25T00:04:07.432Z,0
2017-09-25T00:05:07.452Z,0
2017-09-25T00:06:07.123Z,0
2017-09-25T00:07:07.424Z,0
2017-09-25T00:08:07.425Z,0
2017-09-25T00:09:07.119Z,0
2017-09-25T00:10:07.424Z,0
2017-09-25T00:11:07.120Z,0
2017-09-25T00:12:07.109Z,0
2017-09-25T00:13:06.794Z,0
2017-09-25T00:14:06.803Z,0
2017-09-25T00:15:07.418Z,0
2017-09-25T00:16:07.418Z,0
2017-09-25T00:17:06.798Z,0
2017-09-25T00:18:07.418Z,0
2017-09-25T00:19:07.404Z,0
2017-09-25T00:20:07.095Z,0
2017-09-25T00:21:07.104Z,0
2017-09-25T00:22:06.783Z,0
2017-09-25T00:23:07.094Z,0
2017-09-25T00:24:07.095Z,0
2017-09-25T00:25:06.778Z,0
2017-09-25T00:26:07.081Z,0
2017-09-25T00:27:07.083Z,0
2017-09-25T00:28:07.390Z,0
2017-09-25T00:29:07.394Z,0
2017-09-25T00:30:09.917Z,0
2017-09-25T00:31:06.771Z,0
2017-09-25T00:32:07.061Z,0
2017-09-25T00:33:07.063Z,0
2017-09-25T00:34:07.072Z,0
2017-09-25T00:35:07.066Z,0
2017-09-25T00:36:07.380Z,0
2017-09-25T00:37:07.063Z,0
2017-09-25T00:38:07.046Z,0
2017-09-25T00:39:07.044Z,0
2017-09-25T00:40:08.252Z,0
2017-09-25T00:41:07.044Z,0
2017-09-25T00:42:07.348Z,0
2017-09-25T00:43:07.350Z,0
2017-09-25T00:44:07.344Z,0
2017-09-25T00:45:08.588Z,0
2017-09-25T00:46:07.037Z,0
2017-09-25T00:47:07.030Z,0
2017-09-25T00:48:06.714Z,0
2017-09-25T00:49:07.333Z,0
2017-09-25T00:50:06.720Z,0
2017-09-25T00:51:07.327Z,0
2017-09-25T00:52:07.324Z,0
2017-09-25T00:53:07.325Z,0
2017-09-25T00:54:06.720Z,0
2017-09-25T00:55:07.329Z,0
2017-09-25T00:56:06.699Z,0
2017-09-25T00:57:07.000Z,0
2017-09-25T00:58:07.004Z,0
2017-09-25T00:59:06.996Z,0
2017-09-25T01:00:07.312Z,0
2017-09-25T01:01:07.010Z,0
2017-09-25T01:02:06.990Z,0
2017-09-25T01:03:06.688Z,0
2017-09-25T01:04:07.295Z,0
2017-09-25T01:05:06.988Z,0
2017-09-25T01:06:06.990Z,0
2017-09-25T01:07:07.298Z,0
2017-09-25T01:08:06.978Z,0
2017-09-25T01:09:06.971Z,0
2017-09-25T01:10:06.980Z,0
2017-09-25T01:11:06.986Z,0
2017-09-25T01:12:06.969Z,0
2017-09-25T01:13:06.655Z,0
2017-09-25T01:14:06.657Z,0
2017-09-25T01:15:07.284Z,0
2017-09-25T01:16:07.273Z,0
2017-09-25T01:17:06.645Z,0
2017-09-25T01:18:06.947Z,0
2017-09-25T01:19:07.264Z,0
2017-09-25T01:20:06.945Z,0
2017-09-25T01:21:06.948Z,0
2017-09-25T01:22:06.633Z,0
2017-09-25T01:23:06.642Z,0
2017-09-25T01:24:06.631Z,0
2017-09-25T01:25:06.648Z,0
2017-09-25T01:26:06.927Z,0
2017-09-25T01:27:07.248Z,0
2017-09-25T01:28:07.251Z,0
2017-09-25T01:29:07.254Z,0
2017-09-25T01:30:07.247Z,0
2017-09-25T01:31:07.530Z,0
2017-09-25T01:32:06.916Z,0
2017-09-25T01:33:06.926Z,0
2017-09-25T01:34:07.222Z,0
2017-09-25T01:35:07.236Z,0
2017-09-25T01:36:06.909Z,0
2017-09-25T01:37:06.592Z,0
2017-09-25T01:38:06.594Z,0
2017-09-25T01:39:07.216Z,0
2017-09-25T01:40:06.630Z,0
2017-09-25T01:41:06.887Z,0
2017-09-25T01:42:06.888Z,0
2017-09-25T01:43:06.577Z,0
2017-09-25T01:44:06.886Z,0
2017-09-25T01:45:07.222Z,0
2017-09-25T01:46:06.884Z,0
2017-09-25T01:47:07.198Z,0
2017-09-25T01:48:06.883Z,0
2017-09-25T01:49:07.195Z,0
2017-09-25T01:50:06.568Z,0
2017-09-25T01:51:06.549Z,0
2017-09-25T01:52:06.863Z,0
2017-09-25T01:53:06.549Z,0
2017-09-25T01:54:06.859Z,0
2017-09-25T01:55:06.853Z,0
2017-09-25T01:56:07.162Z,0
2017-09-25T01:57:07.155Z,0
2017-09-25T01:58:06.543Z,0
2017-09-25T01:59:07.148Z,0
2017-09-25T02:00:06.870Z,0
2017-09-25T02:01:09.747Z,0
2017-09-25T02:02:06.846Z,0
2017-09-25T02:03:06.834Z,0
2017-09-25T02:04:06.832Z,0
2017-09-25T02:05:07.149Z,0
2017-09-25T02:06:07.137Z,0
2017-09-25T02:07:07.190Z,0
2017-09-25T02:08:06.818Z,0
2017-09-25T02:09:06.816Z,0
2017-09-25T02:10:06.827Z,0
2017-09-25T02:11:07.121Z,0
2017-09-25T02:12:06.527Z,0
2017-09-25T02:13:06.801Z,0
2017-09-25T02:14:06.797Z,0
2017-09-25T02:15:06.805Z,0
2017-09-25T02:16:06.505Z,0
2017-09-25T02:17:07.101Z,0
2017-09-25T02:18:06.486Z,0
2017-09-25T02:19:06.790Z,0
2017-09-25T02:20:06.794Z,0
2017-09-25T02:21:06.777Z,0
2017-09-25T02:22:06.469Z,0
2017-09-25T02:23:06.465Z,0
2017-09-25T02:24:06.779Z,0
2017-09-25T02:25:06.779Z,0
2017-09-25T02:26:06.802Z,0
2017-09-25T02:27:06.144Z,0
2017-09-25T02:28:06.762Z,0
2017-09-25T02:29:06.764Z,0
2017-09-25T02:30:06.455Z,0
2017-09-25T02:31:07.059Z,0
2017-09-25T02:32:06.749Z,0
2017-09-25T02:33:06.744Z,0
2017-09-25T02:34:06.745Z,0
2017-09-25T02:35:06.757Z,0
2017-09-25T02:36:06.736Z,0
2017-09-25T02:37:07.041Z,0
2017-09-25T02:38:06.738Z,0
2017-09-25T02:39:06.746Z,0
2017-09-25T02:40:06.741Z,0
2017-09-25T02:41:07.033Z,0
2017-09-25T02:42:07.032Z,0
2017-09-25T02:43:07.027Z,0
2017-09-25T02:44:06.757Z,0
2017-09-25T02:45:07.030Z,0
2017-09-25T02:46:06.091Z,0
2017-09-25T02:47:07.252Z,0
2017-09-25T02:48:06.702Z,0
2017-09-25T02:49:07.015Z,0
2017-09-25T02:50:07.015Z,0
2017-09-25T02:51:07.006Z,0
2017-09-25T02:52:06.697Z,0
2017-09-25T02:53:06.690Z,0
2017-09-25T02:54:07.012Z,0
2017-09-25T02:55:06.412Z,0
2017-09-25T02:56:06.061Z,0
2017-09-25T02:57:06.987Z,0
2017-09-25T02:58:06.367Z,0
2017-09-25T02:59:06.356Z,0
2017-09-25T03:00:06.984Z,0
2017-09-25T03:01:06.662Z,0
2017-09-25T03:02:08.072Z,0
2017-09-25T03:03:06.973Z,0
2017-09-25T03:04:06.652Z,0
2017-09-25T03:05:06.958Z,0
2017-09-25T03:06:06.959Z,0
2017-09-25T03:07:06.341Z,0
2017-09-25T03:08:06.370Z,0
2017-09-25T03:09:06.325Z,0
2017-09-25T03:10:06.643Z,0
2017-09-25T03:11:06.629Z,0
2017-09-25T03:12:06.640Z,0
2017-09-25T03:13:06.627Z,0
2017-09-25T03:14:06.936Z,0
2017-09-25T03:15:06.612Z,0
2017-09-25T03:16:06.919Z,0
2017-09-25T03:17:06.610Z,0
2017-09-25T03:18:06.914Z,0
2017-09-25T03:19:06.605Z,0
2017-09-25T03:20:05.993Z,0
2017-09-25T03:21:06.287Z,0
2017-09-25T03:22:06.907Z,0
2017-09-25T03:23:06.903Z,0
2017-09-25T03:24:05.968Z,0
2017-09-25T03:25:06.595Z,0
2017-09-25T03:26:05.967Z,0
2017-09-25T03:27:06.575Z,0
2017-09-25T03:28:06.884Z,0
2017-09-25T03:29:06.571Z,0
2017-09-25T03:30:06.588Z,0
2017-09-25T03:31:06.569Z,0
2017-09-25T03:32:11.565Z,0
2017-09-25T03:33:06.557Z,0
2017-09-25T03:34:06.558Z,0
2017-09-25T03:35:06.265Z,0
2017-09-25T03:36:06.235Z,0
2017-09-25T03:37:06.859Z,0
2017-09-25T03:38:06.575Z,0
2017-09-25T03:39:06.229Z,0
2017-09-25T03:40:06.531Z,0
2017-09-25T03:41:06.845Z,0
2017-09-25T03:42:06.524Z,0
2017-09-25T03:43:06.534Z,0
2017-09-25T03:44:06.522Z,0
2017-09-25T03:45:06.835Z,0
2017-09-25T03:46:06.819Z,0
2017-09-25T03:47:06.202Z,0
2017-09-25T03:48:06.526Z,0
2017-09-25T03:49:06.808Z,0
2017-09-25T03:50:06.537Z,0
2017-09-25T03:51:06.185Z,0
2017-09-25T03:52:05.879Z,0
2017-09-25T03:53:06.808Z,0
2017-09-25T03:54:06.500Z,0
2017-09-25T03:55:06.196Z,0
2017-09-25T03:56:06.496Z,0
2017-09-25T03:57:06.785Z,0
2017-09-25T03:58:06.473Z,0
2017-09-25T03:59:06.471Z,0
2017-09-25T04:00:06.475Z,0
2017-09-25T04:01:06.779Z,0
2017-09-25T04:02:06.795Z,0
2017-09-25T04:03:07.802Z,0
2017-09-25T04:04:06.452Z,0
2017-09-25T04:05:06.828Z,0
2017-09-25T04:06:06.446Z,0
2017-09-25T04:07:06.454Z,0
2017-09-25T04:08:06.173Z,0
2017-09-25T04:09:06.125Z,0
2017-09-25T04:10:06.451Z,0
2017-09-25T04:11:05.817Z,0
2017-09-25T04:12:06.738Z,0
2017-09-25T04:13:06.731Z,0
2017-09-25T04:14:06.429Z,0
2017-09-25T04:15:06.422Z,0
2017-09-25T04:16:06.428Z,0
2017-09-25T04:17:06.420Z,0
2017-09-25T04:18:10.404Z,0
2017-09-25T04:19:06.403Z,0
2017-09-25T04:20:06.408Z,0
2017-09-25T04:21:06.708Z,0
2017-09-25T04:22:06.695Z,0
2017-09-25T04:23:06.418Z,0
2017-09-25T04:24:06.699Z,0
2017-09-25T04:25:06.394Z,0
2017-09-25T04:26:06.384Z,0
2017-09-25T04:27:06.388Z,0
2017-09-25T04:28:06.385Z,0
2017-09-25T04:29:06.360Z,0
2017-09-25T04:30:06.392Z,0
2017-09-25T04:31:06.671Z,0
2017-09-25T04:32:06.376Z,0
2017-09-25T04:33:09.909Z,0
2017-09-25T04:34:06.354Z,0
2017-09-25T04:35:06.676Z,0
2017-09-25T04:36:06.344Z,0
2017-09-25T04:37:06.338Z,0
2017-09-25T04:38:06.642Z,0
2017-09-25T04:39:06.029Z,0
2017-09-25T04:40:06.423Z,0
2017-09-25T04:41:06.636Z,0
2017-09-25T04:42:06.028Z,0
2017-09-25T04:43:06.005Z,0
2017-09-25T04:44:06.342Z,4
2017-09-25T04:45:06.648Z,4
2017-09-25T04:46:06.613Z,0
2017-09-25T04:47:06.300Z,4
2017-09-25T04:48:05.991Z,4
2017-09-25T04:49:06.290Z,4
2017-09-25T04:50:06.304Z,8
2017-09-25T04:51:05.986Z,4
2017-09-25T04:52:06.285Z,8
2017-09-25T04:53:06.588Z,8
2017-09-25T04:54:06.593Z,8
2017-09-25T04:55:06.292Z,8
2017-09-25T04:56:06.587Z,16
2017-09-25T04:57:06.586Z,16
2017-09-25T04:58:06.270Z,16
2017-09-25T04:59:06.562Z,24
2017-09-25T05:00:06.603Z,28
2017-09-25T05:01:06.556Z,32
2017-09-25T05:02:06.241Z,36
2017-09-25T05:03:05.952Z,44
2017-09-25T05:04:09.813Z,52
2017-09-25T05:05:06.249Z,56
2017-09-25T05:06:06.547Z,68
2017-09-25T05:07:06.244Z,76
2017-09-25T05:08:06.232Z,88
2017-09-25T05:09:06.228Z,100
2017-09-25T05:10:06.308Z,112
2017-09-25T05:11:06.219Z,124
2017-09-25T05:12:05.894Z,140
2017-09-25T05:13:06.205Z,156
2017-09-25T05:14:06.200Z,176
2017-09-25T05:15:05.617Z,188
2017-09-25T05:16:06.191Z,208
2017-09-25T05:17:06.190Z,224
2017-09-25T05:18:06.500Z,240
2017-09-25T05:19:06.176Z,252
2017-09-25T05:20:06.186Z,260
2017-09-25T05:21:06.171Z,276
2017-09-25T05:22:06.484Z,296
2017-09-25T05:23:06.470Z,320
2017-09-25T05:24:06.157Z,336
2017-09-25T05:25:06.486Z,360
2017-09-25T05:26:06.159Z,388
2017-09-25T05:27:06.459Z,412
2017-09-25T05:28:06.141Z,440
2017-09-25T05:29:06.193Z,468
2017-09-25T05:30:06.149Z,500
2017-09-25T05:31:06.468Z,528
2017-09-25T05:32:05.824Z,576
2017-09-25T05:33:06.141Z,612
2017-09-25T05:34:05.708Z,644
2017-09-25T05:35:06.442Z,672
2017-09-25T05:36:06.430Z,680
2017-09-25T05:37:06.422Z,716
2017-09-25T05:38:06.419Z,732
2017-09-25T05:39:06.423Z,752
2017-09-25T05:40:05.798Z,772
2017-09-25T05:41:06.093Z,776
2017-09-25T05:42:05.778Z,772
2017-09-25T05:43:06.397Z,772
2017-09-25T05:44:06.081Z,768
2017-09-25T05:45:06.142Z,764
2017-09-25T05:46:06.124Z,776
2017-09-25T05:47:06.381Z,812
2017-09-25T05:48:05.761Z,824
2017-09-25T05:49:06.074Z,816
2017-09-25T05:50:06.080Z,824
2017-09-25T05:51:05.762Z,872
2017-09-25T05:52:06.369Z,904
2017-09-25T05:53:05.745Z,924
2017-09-25T05:54:06.370Z,972
2017-09-25T05:55:06.050Z,1028
2017-09-25T05:56:06.038Z,1112
2017-09-25T05:57:06.035Z,1152
2017-09-25T05:58:06.341Z,1184
2017-09-25T05:59:06.034Z,1188
2017-09-25T06:00:06.028Z,1184
2017-09-25T06:01:05.708Z,1192
2017-09-25T06:02:06.037Z,1244
2017-09-25T06:03:06.013Z,1236
2017-09-25T06:04:05.836Z,1240
2017-09-25T06:05:05.998Z,1240
2017-09-25T06:06:05.685Z,1236
2017-09-25T06:07:06.313Z,1232
2017-09-25T06:08:05.985Z,1264
2017-09-25T06:09:05.678Z,1308
2017-09-25T06:10:05.681Z,1364
2017-09-25T06:11:05.974Z,1364
2017-09-25T06:12:05.973Z,1416
2017-09-25T06:13:05.983Z,1468
2017-09-25T06:14:05.652Z,1528
2017-09-25T06:15:06.278Z,1524
2017-09-25T06:16:05.961Z,1520
2017-09-25T06:17:06.265Z,1488
2017-09-25T06:18:05.949Z,1472
2017-09-25T06:19:08.404Z,1476
2017-09-25T06:20:05.941Z,1532
2017-09-25T06:21:06.275Z,1672
2017-09-25T06:22:06.266Z,1816
2017-09-25T06:23:05.929Z,1900
2017-09-25T06:24:05.933Z,1960
2017-09-25T06:25:05.944Z,1992
2017-09-25T06:26:06.240Z,2052
2017-09-25T06:27:06.240Z,2132
2017-09-25T06:28:05.621Z,2204
2017-09-25T06:29:06.227Z,2356
2017-09-25T06:30:05.918Z,2452
2017-09-25T06:31:06.219Z,2448
2017-09-25T06:32:05.911Z,2524
2017-09-25T06:33:06.222Z,2632
2017-09-25T06:34:06.947Z,2656
2017-09-25T06:35:05.582Z,2764
2017-09-25T06:36:06.198Z,2868
2017-09-25T06:37:05.583Z,3008
2017-09-25T06:38:06.204Z,3012
2017-09-25T06:39:06.187Z,2920
2017-09-25T06:40:06.200Z,2996
2017-09-25T06:41:05.878Z,3072
2017-09-25T06:42:05.873Z,3168
2017-09-25T06:43:05.563Z,3008
2017-09-25T06:44:06.207Z,2980
2017-09-25T06:45:05.574Z,3032
2017-09-25T06:46:05.575Z,3016
2017-09-25T06:47:05.870Z,3064
2017-09-25T06:48:06.171Z,2992
2017-09-25T06:49:05.864Z,3012
2017-09-25T06:50:05.862Z,3044
2017-09-25T06:51:05.548Z,3140
2017-09-25T06:52:05.893Z,3288
2017-09-25T06:53:05.845Z,3484
2017-09-25T06:54:05.845Z,3608
2017-09-25T06:55:05.333Z,3520
2017-09-25T06:56:05.836Z,3516
2017-09-25T06:57:05.532Z,3632
2017-09-25T06:58:06.165Z,3548
2017-09-25T06:59:05.881Z,3596
2017-09-25T07:00:06.002Z,3668
2017-09-25T07:01:05.515Z,3988
2017-09-25T07:02:05.834Z,4168
2017-09-25T07:03:05.818Z,4276
2017-09-25T07:04:05.828Z,4000
2017-09-25T07:05:06.158Z,3956
2017-09-25T07:06:05.813Z,3944
2017-09-25T07:07:05.847Z,4244
2017-09-25T07:08:06.048Z,4232
2017-09-25T07:09:06.170Z,4316
2017-09-25T07:10:05.940Z,4216
2017-09-25T07:11:06.197Z,4208
2017-09-25T07:12:05.801Z,4344
2017-09-25T07:13:05.801Z,4580
2017-09-25T07:14:05.812Z,4592
2017-09-25T07:15:06.131Z,4584
2017-09-25T07:16:05.793Z,4476
2017-09-25T07:17:06.098Z,4732
2017-09-25T07:18:06.101Z,4604
2017-09-25T07:19:05.787Z,4596
2017-09-25T07:20:05.790Z,4700
2017-09-25T07:21:06.094Z,4920
2017-09-25T07:22:05.798Z,5792
2017-09-25T07:23:05.791Z,5168
2017-09-25T07:24:06.087Z,5188
2017-09-25T07:25:05.475Z,4936
2017-09-25T07:26:06.087Z,4924
2017-09-25T07:27:05.480Z,4884
2017-09-25T07:28:06.087Z,5016
2017-09-25T07:29:05.784Z,5348
2017-09-25T07:30:05.495Z,5304
2017-09-25T07:31:05.777Z,5316
2017-09-25T07:32:05.767Z,5052
2017-09-25T07:33:05.809Z,5080
2017-09-25T07:34:05.769Z,5060
2017-09-25T07:35:06.408Z,5060
2017-09-25T07:36:06.085Z,5128
2017-09-25T07:37:05.773Z,5744
2017-09-25T07:38:05.452Z,5352
2017-09-25T07:39:05.458Z,5564
2017-09-25T07:40:06.084Z,5580
2017-09-25T07:41:06.066Z,5600
2017-09-25T07:42:05.757Z,5380
2017-09-25T07:43:05.763Z,5144
2017-09-25T07:44:05.475Z,5104
2017-09-25T07:45:05.751Z,5556
2017-09-25T07:46:06.061Z,5740
2017-09-25T07:47:05.754Z,5532
2017-09-25T07:48:05.754Z,5644
2017-09-25T07:49:05.465Z,5960
2017-09-25T07:50:11.925Z,6832
2017-09-25T07:51:05.446Z,7060
2017-09-25T07:52:05.752Z,7708
2017-09-25T07:53:06.056Z,6696
2017-09-25T07:54:06.051Z,7576
2017-09-25T07:55:05.773Z,7080
2017-09-25T07:56:05.745Z,6664
2017-09-25T07:57:06.055Z,6772
2017-09-25T07:58:06.047Z,6896
2017-09-25T07:59:05.742Z,6524
2017-09-25T08:00:05.484Z,7040
2017-09-25T08:01:06.064Z,6596
2017-09-25T08:02:06.046Z,6376
2017-09-25T08:03:05.731Z,6116
2017-09-25T08:04:06.056Z,6016
2017-09-25T08:05:06.600Z,6988
2017-09-25T08:06:05.586Z,7580
2017-09-25T08:07:05.427Z,6644
2017-09-25T08:08:05.735Z,6728
2017-09-25T08:09:05.726Z,6568
2017-09-25T08:10:05.738Z,6148
2017-09-25T08:11:05.729Z,6528
2017-09-25T08:12:06.037Z,7220
2017-09-25T08:13:05.414Z,7348
2017-09-25T08:14:05.730Z,7452
2017-09-25T08:15:05.413Z,7280
2017-09-25T08:16:05.729Z,7416
2017-09-25T08:17:05.725Z,7388
2017-09-25T08:18:06.045Z,7316
2017-09-25T08:19:05.722Z,7436
2017-09-25T08:20:05.812Z,7488
2017-09-25T08:21:05.719Z,7584
2017-09-25T08:22:05.733Z,7552
2017-09-25T08:23:05.730Z,7580
2017-09-25T08:24:05.728Z,7588
2017-09-25T08:25:06.031Z,7580
2017-09-25T08:26:05.721Z,7692
2017-09-25T08:27:06.032Z,7664
2017-09-25T08:28:06.048Z,7688
2017-09-25T08:29:06.029Z,7668
2017-09-25T08:30:05.411Z,7672
2017-09-25T08:31:05.727Z,7700
2017-09-25T08:32:06.029Z,7708
2017-09-25T08:33:05.414Z,7760
2017-09-25T08:34:05.736Z,7792
2017-09-25T08:35:09.476Z,7808
2017-09-25T08:36:06.034Z,7836
2017-09-25T08:37:05.406Z,7828
2017-09-25T08:38:05.731Z,7848
2017-09-25T08:39:05.720Z,7864
2017-09-25T08:40:05.723Z,7900
2017-09-25T08:41:06.027Z,7896
2017-09-25T08:42:05.733Z,7924
2017-09-25T08:43:06.028Z,7916
2017-09-25T08:44:06.028Z,7936
2017-09-25T08:45:06.032Z,7948
2017-09-25T08:46:05.718Z,7940
2017-09-25T08:47:05.713Z,7932
2017-09-25T08:48:06.035Z,7900
2017-09-25T08:49:05.713Z,7904
2017-09-25T08:50:05.773Z,7888
2017-09-25T08:51:06.074Z,7884
2017-09-25T08:52:06.049Z,7884
2017-09-25T08:53:05.721Z,7876
2017-09-25T08:54:06.022Z,7896
2017-09-25T08:55:06.022Z,7904
2017-09-25T08:56:05.714Z,7896
2017-09-25T08:57:06.022Z,7872
2017-09-25T08:58:06.021Z,7856
2017-09-25T08:59:06.029Z,7864
2017-09-25T09:00:05.724Z,7856
2017-09-25T09:01:06.022Z,7840
2017-09-25T09:02:05.715Z,7812
2017-09-25T09:03:06.026Z,7748
2017-09-25T09:04:05.717Z,7732
2017-09-25T09:05:06.024Z,7724
2017-09-25T09:06:05.865Z,7692
2017-09-25T09:07:06.027Z,7660
2017-09-25T09:08:05.717Z,7632
2017-09-25T09:09:05.717Z,7636
2017-09-25T09:10:06.027Z,7628
2017-09-25T09:11:05.721Z,7580
2017-09-25T09:12:06.029Z,7564
2017-09-25T09:13:05.723Z,7540
2017-09-25T09:14:05.537Z,7536
2017-09-25T09:15:06.451Z,7496
2017-09-25T09:16:06.030Z,7476
2017-09-25T09:17:05.720Z,7468
2017-09-25T09:18:06.035Z,7444
2017-09-25T09:19:06.039Z,7428
2017-09-25T09:20:06.033Z,7400
2017-09-25T09:21:06.842Z,7408
2017-09-25T09:22:06.048Z,7388
2017-09-25T09:23:06.052Z,7376
2017-09-25T09:24:05.727Z,7348
2017-09-25T09:25:06.035Z,7336
2017-09-25T09:26:05.416Z,7340
2017-09-25T09:27:05.740Z,7312
2017-09-25T09:28:06.040Z,7284
2017-09-25T09:29:05.727Z,7272
2017-09-25T09:30:06.054Z,7244
2017-09-25T09:31:06.045Z,7240
2017-09-25T09:32:06.047Z,7220
2017-09-25T09:33:05.741Z,7184
2017-09-25T09:34:05.735Z,7164
2017-09-25T09:35:06.062Z,7152
2017-09-25T09:36:10.747Z,7140
2017-09-25T09:37:05.440Z,7136
2017-09-25T09:38:05.748Z,7112
2017-09-25T09:39:06.051Z,7088
2017-09-25T09:40:05.733Z,7068
2017-09-25T09:41:05.761Z,7044
2017-09-25T09:42:05.452Z,7028
2017-09-25T09:43:05.128Z,7012
2017-09-25T09:44:05.748Z,6992
2017-09-25T09:45:06.070Z,6968
2017-09-25T09:46:05.427Z,6956
2017-09-25T09:47:06.051Z,6936
2017-09-25T09:48:06.060Z,6920
2017-09-25T09:49:05.747Z,6896
2017-09-25T09:50:05.482Z,6864
2017-09-25T09:51:06.050Z,6848
2017-09-25T09:52:06.051Z,6832
2017-09-25T09:53:05.766Z,6824
2017-09-25T09:54:05.440Z,6808
2017-09-25T09:55:05.752Z,6804
2017-09-25T09:56:05.749Z,6776
2017-09-25T09:57:05.763Z,6772
2017-09-25T09:58:06.062Z,6760
2017-09-25T09:59:06.062Z,6768
2017-09-25T10:00:05.444Z,6752
2017-09-25T10:01:05.753Z,6744
2017-09-25T10:02:06.073Z,6728
2017-09-25T10:03:05.761Z,6708
2017-09-25T10:04:06.071Z,6700
2017-09-25T10:05:05.759Z,6700
2017-09-25T10:06:06.321Z,6700
2017-09-25T10:07:05.471Z,6696
2017-09-25T10:08:06.076Z,6684
2017-09-25T10:09:06.082Z,6660
2017-09-25T10:10:06.080Z,6664
2017-09-25T10:11:05.777Z,6648
2017-09-25T10:12:05.767Z,6644
2017-09-25T10:13:05.773Z,6644
2017-09-25T10:14:05.796Z,6624
2017-09-25T10:15:05.823Z,6628
2017-09-25T10:16:06.085Z,6604
2017-09-25T10:17:06.109Z,6592
2017-09-25T10:18:06.092Z,6588
2017-09-25T10:19:06.089Z,6620
2017-09-25T10:20:06.103Z,6616
2017-09-25T10:21:05.797Z,6588
2017-09-25T10:22:05.800Z,6560
2017-09-25T10:23:06.112Z,6552
2017-09-25T10:24:05.799Z,6552
2017-09-25T10:25:05.797Z,6560
2017-09-25T10:26:06.127Z,6560
2017-09-25T10:27:05.799Z,6544
2017-09-25T10:28:05.489Z,6524
2017-09-25T10:29:05.495Z,6520
2017-09-25T10:30:06.115Z,6516
2017-09-25T10:31:05.808Z,6504
2017-09-25T10:32:05.821Z,6504
2017-09-25T10:33:05.822Z,6508
2017-09-25T10:34:05.805Z,6500
2017-09-25T10:35:05.512Z,6500
2017-09-25T10:36:06.433Z,6512
2017-09-25T10:37:05.825Z,6520
2017-09-25T10:38:05.828Z,6528
2017-09-25T10:39:05.831Z,6496
2017-09-25T10:40:05.823Z,6496
2017-09-25T10:41:05.821Z,6500
2017-09-25T10:42:06.160Z,6480
2017-09-25T10:43:05.829Z,6448
2017-09-25T10:44:05.521Z,6432
2017-09-25T10:45:05.834Z,6416
2017-09-25T10:46:05.913Z,6408
2017-09-25T10:47:05.842Z,6392
2017-09-25T10:48:06.146Z,6356
2017-09-25T10:49:06.196Z,6352
2017-09-25T10:50:06.169Z,6336
2017-09-25T10:51:05.849Z,6320
2017-09-25T10:52:06.163Z,6316
2017-09-25T10:53:05.847Z,6312
2017-09-25T10:54:05.857Z,6308
2017-09-25T10:55:05.856Z,6272
2017-09-25T10:56:05.855Z,6256
2017-09-25T10:57:05.856Z,6248
2017-09-25T10:58:05.859Z,6212
2017-09-25T10:59:05.861Z,6184
2017-09-25T11:00:06.193Z,6156
2017-09-25T11:01:06.187Z,6144
2017-09-25T11:02:05.559Z,6136
2017-09-25T11:03:05.872Z,6116
2017-09-25T11:04:05.564Z,6092
2017-09-25T11:05:06.213Z,6076
2017-09-25T11:06:07.129Z,6052
2017-09-25T11:07:05.883Z,6028
2017-09-25T11:08:05.579Z,6020
2017-09-25T11:09:05.890Z,5988
2017-09-25T11:10:05.579Z,5980
2017-09-25T11:11:05.594Z,5972
2017-09-25T11:12:05.892Z,5952
2017-09-25T11:13:05.900Z,5960
2017-09-25T11:14:05.907Z,5964
2017-09-25T11:15:05.593Z,5964
2017-09-25T11:16:05.901Z,5980
2017-09-25T11:17:05.604Z,5992
2017-09-25T11:18:06.217Z,6008
2017-09-25T11:19:06.222Z,6004
2017-09-25T11:20:06.228Z,5992
2017-09-25T11:21:06.224Z,5976
2017-09-25T11:22:05.606Z,5932
2017-09-25T11:23:05.615Z,5968
2017-09-25T11:24:06.232Z,5968
2017-09-25T11:25:06.233Z,5968
2017-09-25T11:26:05.927Z,5980
2017-09-25T11:27:05.956Z,5976
2017-09-25T11:28:06.248Z,5968
2017-09-25T11:29:05.939Z,5960
2017-09-25T11:30:06.257Z,5964
2017-09-25T11:31:05.951Z,5956
2017-09-25T11:32:06.255Z,5948
2017-09-25T11:33:06.256Z,5952
2017-09-25T11:34:05.944Z,5960
2017-09-25T11:35:05.959Z,5964
2017-09-25T11:36:06.268Z,5972
2017-09-25T11:37:07.508Z,5984
2017-09-25T11:38:05.995Z,5988
2017-09-25T11:39:06.271Z,5988
2017-09-25T11:40:06.301Z,5992
2017-09-25T11:41:06.298Z,6004
2017-09-25T11:42:06.310Z,6012
2017-09-25T11:43:05.659Z,6000
2017-09-25T11:44:06.317Z,6008
2017-09-25T11:45:06.315Z,6028
2017-09-25T11:46:05.668Z,6056
2017-09-25T11:47:05.980Z,6100
2017-09-25T11:48:06.320Z,6160
2017-09-25T11:49:05.673Z,6204
2017-09-25T11:50:05.997Z,6248
2017-09-25T11:51:06.132Z,6296
2017-09-25T11:52:06.004Z,6300
2017-09-25T11:53:06.314Z,6320
2017-09-25T11:54:06.330Z,6392
2017-09-25T11:55:06.331Z,6460
2017-09-25T11:56:05.712Z,6528
2017-09-25T11:57:06.029Z,6564
2017-09-25T11:58:06.335Z,6576
2017-09-25T11:59:05.705Z,6632
2017-09-25T12:00:06.030Z,6652
2017-09-25T12:01:06.343Z,6620
2017-09-25T12:02:06.028Z,6560
2017-09-25T12:03:06.034Z,6592
2017-09-25T12:04:05.735Z,6640
2017-09-25T12:05:06.375Z,6716
2017-09-25T12:06:06.377Z,6772
2017-09-25T12:07:11.465Z,6888
2017-09-25T12:08:06.069Z,6892
2017-09-25T12:09:06.052Z,6884
2017-09-25T12:10:06.058Z,6852
2017-09-25T12:11:06.072Z,6884
2017-09-25T12:12:05.454Z,6840
2017-09-25T12:13:06.380Z,6788
2017-09-25T12:14:05.761Z,6748
2017-09-25T12:15:06.066Z,6676
2017-09-25T12:16:06.083Z,6584
2017-09-25T12:17:05.776Z,6532
2017-09-25T12:18:06.089Z,6548
2017-09-25T12:19:06.080Z,6604
2017-09-25T12:20:05.795Z,6636
2017-09-25T12:21:05.784Z,6632
2017-09-25T12:22:06.091Z,6584
2017-09-25T12:23:07.207Z,6616
2017-09-25T12:24:06.096Z,6680
2017-09-25T12:25:05.802Z,6744
2017-09-25T12:26:06.431Z,6864
2017-09-25T12:27:05.798Z,6964
2017-09-25T12:28:05.827Z,7084
2017-09-25T12:29:05.813Z,7152
2017-09-25T12:30:06.447Z,6088
2017-09-25T12:31:06.128Z,5972
2017-09-25T12:32:05.515Z,5800
2017-09-25T12:33:06.136Z,5848
2017-09-25T12:34:06.142Z,6352
2017-09-25T12:35:05.827Z,6860
2017-09-25T12:36:06.153Z,6940
2017-09-25T12:37:05.832Z,6964
2017-09-25T12:38:06.714Z,6936
2017-09-25T12:39:06.161Z,6776
2017-09-25T12:40:05.861Z,6680
2017-09-25T12:41:05.850Z,6348
2017-09-25T12:42:06.486Z,6304
2017-09-25T12:43:06.188Z,6400
2017-09-25T12:44:06.179Z,6444
2017-09-25T12:45:06.179Z,6424
2017-09-25T12:46:06.181Z,6428
2017-09-25T12:47:06.181Z,6436
2017-09-25T12:48:05.882Z,6472
2017-09-25T12:49:06.504Z,6460
2017-09-25T12:50:06.201Z,6396
2017-09-25T12:51:06.213Z,6372
2017-09-25T12:52:06.504Z,6404
2017-09-25T12:53:08.311Z,6476
2017-09-25T12:54:05.895Z,6468
2017-09-25T12:55:06.243Z,6444
2017-09-25T12:56:06.521Z,6388
2017-09-25T12:57:06.225Z,6308
2017-09-25T12:58:06.523Z,6252
2017-09-25T12:59:05.914Z,5560
2017-09-25T13:00:06.230Z,5396
2017-09-25T13:01:06.244Z,5900
2017-09-25T13:02:05.956Z,5144
2017-09-25T13:03:06.235Z,5092
2017-09-25T13:04:06.242Z,5008
2017-09-25T13:05:06.251Z,4876
2017-09-25T13:06:05.934Z,4792
2017-09-25T13:07:06.257Z,4780
2017-09-25T13:08:07.910Z,4804
2017-09-25T13:09:06.502Z,4840
2017-09-25T13:10:06.596Z,4876
2017-09-25T13:11:06.595Z,4964
2017-09-25T13:12:06.576Z,5012
2017-09-25T13:13:06.608Z,5072
2017-09-25T13:14:06.605Z,5084
2017-09-25T13:15:06.289Z,5072
2017-09-25T13:16:06.310Z,5000
2017-09-25T13:17:05.986Z,4888
2017-09-25T13:18:06.608Z,4844
2017-09-25T13:19:06.587Z,4804
2017-09-25T13:20:06.613Z,4740
2017-09-25T13:21:06.635Z,4652
2017-09-25T13:22:06.289Z,4612
2017-09-25T13:23:06.659Z,4580
2017-09-25T13:24:05.999Z,4520
2017-09-25T13:25:06.305Z,4452
2017-09-25T13:26:06.312Z,4388
2017-09-25T13:27:06.313Z,4320
2017-09-25T13:28:06.315Z,4256
2017-09-25T13:29:06.622Z,4180
2017-09-25T13:30:06.328Z,4132
2017-09-25T13:31:06.346Z,4148
2017-09-25T13:32:06.008Z,4172
2017-09-25T13:33:06.637Z,4196
2017-09-25T13:34:06.642Z,4240
2017-09-25T13:35:06.336Z,4284
2017-09-25T13:36:06.639Z,4312
2017-09-25T13:37:06.026Z,4324
2017-09-25T13:38:06.644Z,4336
2017-09-25T13:39:06.025Z,4340
2017-09-25T13:40:06.360Z,4332
2017-09-25T13:41:05.722Z,4360
2017-09-25T13:42:06.657Z,4372
2017-09-25T13:43:06.701Z,4368
2017-09-25T13:44:05.727Z,4440
2017-09-25T13:45:06.395Z,4504
2017-09-25T13:46:06.061Z,4564
2017-09-25T13:47:07.338Z,4588
2017-09-25T13:48:06.524Z,4636
2017-09-25T13:49:06.674Z,4596
2017-09-25T13:50:06.410Z,4596